createdAt,value
2023-02-19T00:00:00.714Z,101301.09
2023-02-19T00:00:23.947Z,101300.19
2023-02-19T00:00:46.837Z,101308.06
2023-02-19T00:01:10.246Z,101299.53
2023-02-19T00:01:34.198Z,101301.47
2023-02-19T00:01:57.149Z,101300.72
2023-02-19T00:02:18.878Z,101298.84
2023-02-19T00:02:42.510Z,101303.13
2023-02-19T00:03:04.281Z,101291.13
2023-02-19T00:03:27.137Z,101298.56
2023-02-19T00:03:52.141Z,101288.81
2023-02-19T00:04:15.681Z,101297.84
2023-02-19T00:04:38.359Z,101294.25
2023-02-19T00:05:00.640Z,101298.38
2023-02-19T00:05:22.394Z,101300.13
2023-02-19T00:05:44.060Z,101296.47
2023-02-19T00:06:08.124Z,101290.16
2023-02-19T00:06:32.328Z,101297.50
2023-02-19T00:06:53.999Z,101290.38
2023-02-19T00:07:15.634Z,101297.31
2023-02-19T00:07:37.306Z,101294.50
2023-02-19T00:08:00.024Z,101292.81
2023-02-19T00:08:21.870Z,101291.50
2023-02-19T00:08:43.491Z,101286.56
2023-02-19T00:09:05.398Z,101288.31
2023-02-19T00:09:28.226Z,101295.47
2023-02-19T00:09:49.817Z,101282.06
2023-02-19T00:10:11.466Z,101289.97
2023-02-19T00:10:33.138Z,101287.91
2023-02-19T00:10:54.770Z,101294.03
2023-02-19T00:11:19.220Z,101281.63
2023-02-19T00:11:41.444Z,101278.69
2023-02-19T00:12:03.376Z,101290.16
2023-02-19T00:12:25.987Z,101287.22
2023-02-19T00:12:47.598Z,101286.25
2023-02-19T00:13:09.320Z,101279.97
2023-02-19T00:13:31.671Z,101291.47
2023-02-19T00:13:57.331Z,101283.53
2023-02-19T00:14:20.619Z,101280.25
2023-02-19T00:14:42.304Z,101286.19
2023-02-19T00:15:04.614Z,101282.50
2023-02-19T00:15:28.644Z,101284.25
2023-02-19T00:15:50.291Z,101278.50
2023-02-19T00:16:14.856Z,101288.69
2023-02-19T00:16:39.051Z,101276.25
2023-02-19T00:17:01.763Z,101286.69
2023-02-19T00:17:23.599Z,101279.53
2023-02-19T00:17:45.210Z,101287.41
2023-02-19T00:18:06.847Z,101284.81
2023-02-19T00:18:28.479Z,101284.06
2023-02-19T00:18:51.549Z,101280.63
2023-02-19T00:19:14.973Z,101282.47
2023-02-19T00:19:36.604Z,101293.91
2023-02-19T00:19:59.253Z,101282.63
2023-02-19T00:20:21.078Z,101272.06
2023-02-19T00:20:42.698Z,101282.75
2023-02-19T00:21:04.948Z,101283.50
2023-02-19T00:21:26.995Z,101286.13
2023-02-19T00:21:52.104Z,101288.69
2023-02-19T00:22:13.801Z,101289.50
2023-02-19T00:22:35.585Z,101281.59
2023-02-19T00:22:57.305Z,101282.63
2023-02-19T00:23:18.978Z,101280.72
2023-02-19T00:23:41.607Z,101280.69
2023-02-19T00:24:06.259Z,101280.69
2023-02-19T00:24:27.986Z,101265.91
2023-02-19T00:24:49.972Z,101255.59
2023-02-19T00:25:12.602Z,101279.03
2023-02-19T00:25:36.869Z,101277.25
2023-02-19T00:26:17.150Z,101278.13
2023-02-19T00:26:42.652Z,101279.75
2023-02-19T00:27:04.404Z,101279.75
2023-02-19T00:27:26.332Z,101274.31
2023-02-19T00:27:48.127Z,101271.53
2023-02-19T00:28:10.744Z,101284.47
2023-02-19T00:28:32.851Z,101272.78
2023-02-19T00:28:55.916Z,101269.28
2023-02-19T00:29:19.707Z,101274.47
2023-02-19T00:29:42.433Z,101287.81
2023-02-19T00:30:04.663Z,101279.75
2023-02-19T00:30:27.709Z,101276.25
2023-02-19T00:30:50.122Z,101279.66
2023-02-19T00:31:20.201Z,101279.66
2023-02-19T00:31:42.219Z,101279.34
2023-02-19T00:32:04.521Z,101275.16
2023-02-19T00:32:26.478Z,101269.75
2023-02-19T00:32:51.742Z,101275.03
2023-02-19T00:33:13.596Z,101274.91
2023-02-19T00:33:38.098Z,101281.03
2023-02-19T00:34:02.459Z,101265.19
2023-02-19T00:34:24.118Z,101281.81
2023-02-19T00:34:46.142Z,101274.63
2023-02-19T00:35:08.046Z,101270.25
2023-02-19T00:35:30.794Z,101269.03
2023-02-19T00:35:52.444Z,101269.94
2023-02-19T00:36:15.517Z,101256.84
2023-02-19T00:36:39.107Z,101270.81
2023-02-19T00:37:01.814Z,101270.00
2023-02-19T00:37:23.670Z,101265.53
2023-02-19T00:37:45.294Z,101270.75
2023-02-19T00:38:07.029Z,101276.25
2023-02-19T00:38:28.849Z,101256.88
2023-02-19T00:38:52.144Z,101266.84
2023-02-19T00:39:16.187Z,101261.59
2023-02-19T00:39:38.041Z,101264.25
2023-02-19T00:39:59.756Z,101275.63
2023-02-19T00:40:22.742Z,101266.00
2023-02-19T00:40:44.397Z,101252.19
2023-02-19T00:41:19.086Z,101267.88
2023-02-19T00:41:40.850Z,101275.00
2023-02-19T00:42:03.572Z,101267.88
2023-02-19T00:42:25.794Z,101267.75
2023-02-19T00:42:47.385Z,101272.16
2023-02-19T00:43:11.213Z,101267.59
2023-02-19T00:43:32.929Z,101266.84
2023-02-19T00:43:57.607Z,101266.19
2023-02-19T00:44:19.604Z,101265.28
2023-02-19T00:44:43.151Z,101271.81
2023-02-19T00:45:07.675Z,101274.50
2023-02-19T00:45:30.644Z,101275.31
2023-02-19T00:45:53.285Z,101267.19
2023-02-19T00:46:15.428Z,101268.03
2023-02-19T00:46:39.654Z,101275.19
2023-02-19T00:47:01.345Z,101262.78
2023-02-19T00:47:24.071Z,101267.16
2023-02-19T00:47:45.724Z,101270.63
2023-02-19T00:48:07.492Z,101264.69
2023-02-19T00:48:29.207Z,101266.59
2023-02-19T00:48:52.514Z,101267.66
2023-02-19T00:49:17.297Z,101273.00
2023-02-19T00:49:39.043Z,101272.88
2023-02-19T00:50:01.002Z,101267.47
2023-02-19T00:50:22.714Z,101270.94
2023-02-19T00:50:45.428Z,101268.97
2023-02-19T00:51:07.090Z,101265.28
2023-02-19T00:51:30.859Z,101274.13
2023-02-19T00:51:53.073Z,101275.88
2023-02-19T00:52:16.093Z,101267.75
2023-02-19T00:52:37.996Z,101252.03
2023-02-19T00:53:00.087Z,101264.25
2023-02-19T00:53:21.740Z,101244.06
2023-02-19T00:53:43.656Z,101229.28
2023-02-19T00:54:07.505Z,101263.13
2023-02-19T00:54:29.171Z,101267.75
2023-02-19T00:54:50.899Z,101265.56
2023-02-19T00:55:12.676Z,101270.00
2023-02-19T00:55:34.376Z,101271.13
2023-02-19T00:55:56.976Z,101263.97
2023-02-19T00:56:19.027Z,101265.59
2023-02-19T00:56:40.795Z,101259.38
2023-02-19T00:57:03.455Z,101275.94
2023-02-19T00:57:25.066Z,101274.19
2023-02-19T00:57:46.669Z,101271.75
2023-02-19T00:58:14.726Z,101267.47
2023-02-19T00:58:37.772Z,101270.22
2023-02-19T00:58:59.940Z,101269.28
2023-02-19T00:59:21.662Z,101269.28
2023-02-19T00:59:43.291Z,101268.38
2023-02-19T01:00:07.466Z,101266.66
2023-02-19T01:00:30.492Z,101264.13
2023-02-19T01:00:52.116Z,101265.75
2023-02-19T01:01:15.031Z,101265.91
2023-02-19T01:01:38.228Z,101265.94
2023-02-19T01:01:59.979Z,101253.13
2023-02-19T01:02:21.590Z,101259.47
2023-02-19T01:02:44.795Z,101259.31
2023-02-19T01:03:07.454Z,101257.00
2023-02-19T01:03:29.252Z,101256.91
2023-02-19T01:03:51.221Z,101250.50
2023-02-19T01:04:13.449Z,101258.28
2023-02-19T01:04:36.469Z,101249.50
2023-02-19T01:04:58.203Z,101261.84
2023-02-19T01:05:20.052Z,101246.81
2023-02-19T01:05:41.858Z,101254.44
2023-02-19T01:06:04.695Z,101261.38
2023-02-19T01:06:29.906Z,101247.28
2023-02-19T01:06:51.581Z,101252.25
2023-02-19T01:07:13.237Z,101255.69
2023-02-19T01:07:36.021Z,101252.91
2023-02-19T01:07:57.900Z,101254.81
2023-02-19T01:08:20.789Z,101255.56
2023-02-19T01:08:42.939Z,101254.56
2023-02-19T01:09:05.655Z,101258.75
2023-02-19T01:09:27.401Z,101249.88
2023-02-19T01:09:50.076Z,101260.53
2023-02-19T01:10:11.778Z,101260.38
2023-02-19T01:10:33.509Z,101262.00
2023-02-19T01:10:55.134Z,101257.56
2023-02-19T01:11:20.270Z,101257.56
2023-02-19T01:11:41.955Z,101254.72
2023-02-19T01:12:04.007Z,101253.19
2023-02-19T01:12:25.879Z,101258.66
2023-02-19T01:12:48.526Z,101263.25
2023-02-19T01:13:11.022Z,101254.31
2023-02-19T01:13:33.722Z,101251.66
2023-02-19T01:13:58.366Z,101261.19
2023-02-19T01:14:20.944Z,101249.06
2023-02-19T01:14:42.839Z,101249.78
2023-02-19T01:15:04.910Z,101253.28
2023-02-19T01:15:26.626Z,101256.06
2023-02-19T01:15:50.761Z,101265.59
2023-02-19T01:16:14.979Z,101262.00
2023-02-19T01:16:37.239Z,101256.69
2023-02-19T01:17:00.377Z,101262.84
2023-02-19T01:17:22.072Z,101253.97
2023-02-19T01:17:43.776Z,101251.22
2023-02-19T01:18:05.709Z,101261.69
2023-02-19T01:18:28.326Z,101254.53
2023-02-19T01:18:50.350Z,101250.28
2023-02-19T01:19:13.379Z,101251.94
2023-02-19T01:19:35.295Z,101260.75
2023-02-19T01:19:58.034Z,101252.66
2023-02-19T01:20:19.807Z,101255.16
2023-02-19T01:20:43.612Z,101249.03
2023-02-19T01:21:07.328Z,101250.81
2023-02-19T01:21:31.647Z,101243.94
2023-02-19T01:21:53.441Z,101245.75
2023-02-19T01:22:15.250Z,101249.28
2023-02-19T01:22:36.917Z,101251.91
2023-02-19T01:23:00.920Z,101251.88
2023-02-19T01:23:23.564Z,101256.16
2023-02-19T01:23:45.693Z,101261.66
2023-02-19T01:24:07.623Z,101251.34
2023-02-19T01:24:29.401Z,101254.78
2023-02-19T01:24:52.124Z,101251.03
2023-02-19T01:25:13.845Z,101250.00
2023-02-19T01:25:38.504Z,101244.19
2023-02-19T01:26:00.246Z,101247.44
2023-02-19T01:26:25.510Z,101251.16
2023-02-19T01:26:47.223Z,101245.91
2023-02-19T01:27:10.092Z,101245.84
2023-02-19T01:27:33.309Z,101240.41
2023-02-19T01:27:55.136Z,101243.88
2023-02-19T01:28:17.705Z,101249.94
2023-02-19T01:28:39.425Z,101249.44
2023-02-19T01:29:03.026Z,101254.63
2023-02-19T01:29:24.732Z,101247.31
2023-02-19T01:29:46.666Z,101243.69
2023-02-19T01:30:10.888Z,101244.41
2023-02-19T01:30:35.687Z,101245.28
2023-02-19T01:31:02.770Z,101241.25
2023-02-19T01:31:25.233Z,101240.38
2023-02-19T01:31:48.517Z,101242.00
2023-02-19T01:32:10.414Z,101248.00
2023-02-19T01:32:32.191Z,101233.91
2023-02-19T01:32:54.134Z,101244.41
2023-02-19T01:33:16.937Z,101243.41
2023-02-19T01:33:38.706Z,101235.53
2023-02-19T01:34:02.380Z,101244.13
2023-02-19T01:34:24.297Z,101246.78
2023-02-19T01:34:46.960Z,101248.53
2023-02-19T01:35:09.311Z,101247.53
2023-02-19T01:35:32.588Z,101231.66
2023-02-19T01:35:56.112Z,101227.25
2023-02-19T01:36:18.602Z,101224.66
2023-02-19T01:36:41.679Z,101242.03
2023-02-19T01:37:03.501Z,101246.41
2023-02-19T01:37:25.188Z,101247.47
2023-02-19T01:37:46.773Z,101252.69
2023-02-19T01:38:09.431Z,101247.34
2023-02-19T01:38:31.532Z,101249.88
2023-02-19T01:38:53.301Z,101250.13
2023-02-19T01:39:15.997Z,101251.91
2023-02-19T01:39:54.786Z,101261.59
2023-02-19T01:40:16.803Z,101250.13
2023-02-19T01:40:39.422Z,101248.25
2023-02-19T01:41:03.215Z,101247.34
2023-02-19T01:41:25.717Z,101253.44
2023-02-19T01:41:47.328Z,101258.72
2023-02-19T01:42:14.287Z,101246.41
2023-02-19T01:42:35.866Z,101257.09
2023-02-19T01:42:57.696Z,101249.41
2023-02-19T01:43:19.316Z,101245.91
2023-02-19T01:44:02.625Z,101243.13
2023-02-19T01:45:01.649Z,101244.66
2023-02-19T01:45:30.636Z,101253.50
2023-02-19T01:45:52.767Z,101246.31
2023-02-19T01:46:15.875Z,101251.97
2023-02-19T01:46:39.009Z,101247.50
2023-02-19T01:47:01.791Z,101250.06
2023-02-19T01:47:23.512Z,101253.59
2023-02-19T01:47:45.326Z,101245.53
2023-02-19T01:48:12.418Z,101244.78
2023-02-19T01:48:37.695Z,101243.03
2023-02-19T01:49:04.621Z,101244.66
2023-02-19T01:49:29.098Z,101243.75
2023-02-19T01:49:55.682Z,101246.34
2023-02-19T01:50:17.608Z,101247.22
2023-02-19T01:50:44.077Z,101235.63
2023-02-19T01:51:09.631Z,101245.25
2023-02-19T01:51:36.624Z,101240.03
2023-02-19T01:52:01.978Z,101228.72
2023-02-19T01:52:27.477Z,101253.81
2023-02-19T01:52:49.123Z,101231.88
2023-02-19T01:53:13.499Z,101235.09
2023-02-19T01:53:40.465Z,101240.25
2023-02-19T01:54:05.888Z,101223.78
2023-02-19T01:54:31.874Z,101243.75
2023-02-19T01:54:55.851Z,101240.25
2023-02-19T01:55:17.984Z,101243.34
2023-02-19T01:55:40.923Z,101245.75
2023-02-19T01:56:06.059Z,101237.91
2023-02-19T01:56:30.653Z,101238.78
2023-02-19T01:56:53.763Z,101234.88
2023-02-19T01:57:20.720Z,101242.81
2023-02-19T01:57:47.736Z,101244.75
2023-02-19T01:58:11.883Z,101236.63
2023-02-19T01:58:35.222Z,101241.78
2023-02-19T01:58:59.819Z,101239.00
2023-02-19T01:59:22.197Z,101245.94
2023-02-19T01:59:44.194Z,101234.66
2023-02-19T02:00:10.369Z,101239.13
2023-02-19T02:00:35.785Z,101238.97
2023-02-19T02:00:57.809Z,101240.66
2023-02-19T02:01:20.823Z,101239.66
2023-02-19T02:01:44.278Z,101236.91
2023-02-19T02:02:07.607Z,101239.50
2023-02-19T02:02:29.492Z,101241.28
2023-02-19T02:02:54.575Z,101240.47
2023-02-19T02:03:18.206Z,101232.38
2023-02-19T02:03:45.426Z,101235.84
2023-02-19T02:04:08.793Z,101242.91
2023-02-19T02:04:31.482Z,101241.09
2023-02-19T02:04:53.391Z,101235.91
2023-02-19T02:05:24.939Z,101229.03
2023-02-19T02:05:53.713Z,101227.25
2023-02-19T02:06:21.306Z,101229.69
2023-02-19T02:06:49.140Z,101237.72
2023-02-19T02:07:26.584Z,101232.38
2023-02-19T02:08:07.069Z,101242.03
2023-02-19T02:08:48.667Z,101232.41
2023-02-19T02:09:29.068Z,101237.81
2023-02-19T02:10:10.179Z,101234.81
2023-02-19T02:10:31.857Z,101233.75
2023-02-19T02:10:54.987Z,101240.84
2023-02-19T02:11:17.899Z,101229.28
2023-02-19T02:11:43.804Z,101232.72
2023-02-19T02:12:05.876Z,101240.66
2023-02-19T02:12:27.447Z,101241.63
2023-02-19T02:12:51.457Z,101228.16
2023-02-19T02:13:13.276Z,101236.13
2023-02-19T02:13:36.616Z,101230.75
2023-02-19T02:14:00.004Z,101239.69
2023-02-19T02:14:25.624Z,101233.34
2023-02-19T02:14:48.231Z,101240.38
2023-02-19T02:15:10.001Z,101230.50
2023-02-19T02:15:41.062Z,101230.63
2023-02-19T02:16:22.815Z,101233.78
2023-02-19T02:16:55.562Z,101240.75
2023-02-19T02:17:24.797Z,101245.97
2023-02-19T02:17:53.599Z,101240.53
2023-02-19T02:18:26.988Z,101229.88
2023-02-19T02:18:57.066Z,101234.13
2023-02-19T02:19:32.058Z,101234.94
2023-02-19T02:20:19.914Z,101232.28
2023-02-19T02:20:59.071Z,101243.34
2023-02-19T02:21:56.674Z,101232.66
2023-02-19T02:22:20.936Z,101231.53
2023-02-19T02:22:48.610Z,101239.47
2023-02-19T02:23:19.811Z,101235.09
2023-02-19T02:23:56.990Z,101241.19
2023-02-19T02:25:17.272Z,101233.28
2023-02-19T02:25:59.781Z,101242.88
2023-02-19T02:26:36.053Z,101226.16
2023-02-19T02:27:14.018Z,101234.91
2023-02-19T02:27:49.995Z,101242.66
2023-02-19T02:28:28.583Z,101232.16
2023-02-19T02:29:14.020Z,101236.19
2023-02-19T02:30:04.939Z,101247.69
2023-02-19T02:30:34.210Z,101242.34
2023-02-19T02:30:59.441Z,101232.38
2023-02-19T02:31:28.700Z,101236.78
2023-02-19T02:31:54.199Z,101235.78
2023-02-19T02:32:20.006Z,101238.50
2023-02-19T02:32:53.369Z,101234.22
2023-02-19T02:33:25.561Z,101233.28
2023-02-19T02:33:54.497Z,101236.06
2023-02-19T02:34:19.146Z,101229.00
2023-02-19T02:34:48.380Z,101234.13
2023-02-19T02:35:13.316Z,101220.16
2023-02-19T02:35:39.623Z,101226.34
2023-02-19T02:36:07.966Z,101232.38
2023-02-19T02:36:33.970Z,101240.31
2023-02-19T02:36:57.347Z,101217.34
2023-02-19T02:37:19.108Z,101235.75
2023-02-19T02:37:45.400Z,101222.53
2023-02-19T02:38:11.246Z,101250.06
2023-02-19T02:38:36.477Z,101246.22
2023-02-19T02:39:00.053Z,101241.00
2023-02-19T02:39:26.273Z,101231.22
2023-02-19T02:39:48.757Z,101240.16
2023-02-19T02:40:12.061Z,101239.34
2023-02-19T02:40:34.782Z,101233.19
2023-02-19T02:40:58.703Z,101243.66
2023-02-19T02:41:21.201Z,101212.03
2023-02-19T02:41:44.210Z,101235.34
2023-02-19T02:42:25.893Z,101231.53
2023-02-19T02:42:58.246Z,101238.94
2023-02-19T02:43:21.616Z,101232.63
2023-02-19T02:43:43.239Z,101228.09
2023-02-19T02:44:05.106Z,101233.34
2023-02-19T02:44:35.418Z,101225.19
2023-02-19T02:45:34.074Z,101219.78
2023-02-19T02:45:58.071Z,101230.38
2023-02-19T02:46:30.385Z,101230.19
2023-02-19T02:46:52.034Z,101230.16
2023-02-19T02:47:29.200Z,101231.94
2023-02-19T02:47:55.927Z,101231.84
2023-02-19T02:48:24.695Z,101229.28
2023-02-19T02:48:53.646Z,101229.13
2023-02-19T02:49:22.953Z,101234.19
2023-02-19T02:50:05.029Z,101222.41
2023-02-19T02:50:32.621Z,101234.22
2023-02-19T02:50:58.389Z,101232.31
2023-02-19T02:51:25.592Z,101239.28
2023-02-19T02:51:56.283Z,101220.78
2023-02-19T02:52:35.090Z,101239.28
2023-02-19T02:53:20.465Z,101222.50
2023-02-19T02:54:05.965Z,101234.81
2023-02-19T02:54:49.885Z,101229.41
2023-02-19T02:55:12.880Z,101192.53
2023-02-19T02:55:41.553Z,101225.50
2023-02-19T02:56:04.808Z,101240.53
2023-02-19T02:56:32.054Z,101229.69
2023-02-19T02:56:55.685Z,101230.41
2023-02-19T02:57:19.342Z,101227.06
2023-02-19T02:57:46.184Z,101228.06
2023-02-19T02:58:10.403Z,101228.38
2023-02-19T02:58:34.018Z,101227.59
2023-02-19T02:59:00.922Z,101226.03
2023-02-19T02:59:26.516Z,101232.09
2023-02-19T02:59:50.074Z,101219.47
2023-02-19T03:00:17.079Z,101227.19
2023-02-19T03:01:02.189Z,101230.13
2023-02-19T03:01:46.332Z,101237.19
2023-02-19T03:02:14.224Z,101221.81
2023-02-19T03:02:39.617Z,101230.72
2023-02-19T03:03:01.323Z,101231.41
2023-02-19T03:03:26.884Z,101228.56
2023-02-19T03:03:53.040Z,101225.06
2023-02-19T03:04:23.274Z,101227.78
2023-02-19T03:05:11.485Z,101232.63
2023-02-19T03:05:52.097Z,101231.84
2023-02-19T03:06:17.407Z,101240.81
2023-02-19T03:06:41.974Z,101241.63
2023-02-19T03:07:08.729Z,101231.59
2023-02-19T03:07:37.074Z,101239.31
2023-02-19T03:08:04.246Z,101236.75
2023-02-19T03:08:31.178Z,101240.97
2023-02-19T03:08:59.782Z,101244.34
2023-02-19T03:09:30.170Z,101241.50
2023-02-19T03:09:53.859Z,101235.19
2023-02-19T03:10:20.285Z,101240.47
2023-02-19T03:10:47.289Z,101231.66
2023-02-19T03:11:29.173Z,101242.25
2023-02-19T03:12:20.593Z,101235.25
2023-02-19T03:13:03.692Z,101244.13
2023-02-19T03:13:48.852Z,101243.38
2023-02-19T03:14:34.952Z,101242.34
2023-02-19T03:15:19.572Z,101243.41
2023-02-19T03:16:17.518Z,101243.34
2023-02-19T03:17:01.494Z,101242.50
2023-02-19T03:17:48.970Z,101247.78
2023-02-19T03:18:32.837Z,101250.56
2023-02-19T03:19:16.851Z,101247.84
2023-02-19T03:19:45.686Z,101245.06
2023-02-19T03:20:12.257Z,101240.72
2023-02-19T03:20:36.584Z,101244.13
2023-02-19T03:20:58.785Z,101244.88
2023-02-19T03:21:23.863Z,101253.75
2023-02-19T03:21:50.980Z,101247.38
2023-02-19T03:22:19.870Z,101249.25
2023-02-19T03:22:44.199Z,101244.78
2023-02-19T03:23:08.272Z,101245.00
2023-02-19T03:23:51.599Z,101245.50
2023-02-19T03:24:34.685Z,101247.09
2023-02-19T03:25:19.009Z,101246.75
2023-02-19T03:26:00.589Z,101251.09
2023-02-19T03:26:53.659Z,101258.94
2023-02-19T03:27:20.358Z,101256.31
2023-02-19T03:27:46.295Z,101257.34
2023-02-19T03:28:12.735Z,101253.13
2023-02-19T03:28:59.753Z,101252.78
2023-02-19T03:29:23.166Z,101259.53
2023-02-19T03:29:50.172Z,101258.13
2023-02-19T03:30:16.619Z,101264.16
2023-02-19T03:30:44.821Z,101255.50
2023-02-19T03:31:10.107Z,101260.59
2023-02-19T03:31:34.961Z,101252.31
2023-02-19T03:32:00.771Z,101248.84
2023-02-19T03:32:28.888Z,101261.00
2023-02-19T03:32:56.429Z,101264.59
2023-02-19T03:33:22.509Z,101251.25
2023-02-19T03:33:47.336Z,101258.38
2023-02-19T03:34:15.652Z,101273.34
2023-02-19T03:34:42.701Z,101254.78
2023-02-19T03:35:09.644Z,101253.19
2023-02-19T03:35:34.877Z,101257.41
2023-02-19T03:36:03.657Z,101260.88
2023-02-19T03:36:33.995Z,101257.19
2023-02-19T03:37:02.639Z,101250.94
2023-02-19T03:37:29.784Z,101264.19
2023-02-19T03:38:01.875Z,101266.78
2023-02-19T03:38:29.887Z,101259.94
2023-02-19T03:38:57.066Z,101260.72
2023-02-19T03:39:22.724Z,101262.50
2023-02-19T03:39:45.877Z,101262.44
2023-02-19T03:40:11.372Z,101265.09
2023-02-19T03:40:43.853Z,101265.91
2023-02-19T03:41:13.623Z,101260.69
2023-02-19T03:41:40.613Z,101259.94
2023-02-19T03:42:07.789Z,101271.47
2023-02-19T03:42:39.590Z,101261.72
2023-02-19T03:43:14.789Z,101276.09
2023-02-19T03:43:41.708Z,101261.06
2023-02-19T03:44:12.445Z,101267.34
2023-02-19T03:44:41.226Z,101268.25
2023-02-19T03:45:16.875Z,101274.47
2023-02-19T03:45:46.004Z,101268.69
2023-02-19T03:46:12.154Z,101263.50
2023-02-19T03:46:42.082Z,101270.97
2023-02-19T03:47:10.885Z,101272.56
2023-02-19T03:47:41.910Z,101268.06
2023-02-19T03:48:20.796Z,101277.97
2023-02-19T03:48:49.690Z,101274.13
2023-02-19T03:49:18.889Z,101279.50
2023-02-19T03:49:48.665Z,101266.91
2023-02-19T03:50:18.023Z,101271.34
2023-02-19T03:50:46.671Z,101271.69
2023-02-19T03:51:27.594Z,101280.47
2023-02-19T03:51:53.686Z,101279.34
2023-02-19T03:52:19.240Z,101269.53
2023-02-19T03:52:52.571Z,101276.59
2023-02-19T03:53:20.368Z,101278.25
2023-02-19T03:53:52.902Z,101277.31
2023-02-19T03:54:23.460Z,101286.41
2023-02-19T03:54:51.064Z,101287.19
2023-02-19T03:55:17.237Z,101285.38
2023-02-19T03:55:49.082Z,101282.63
2023-02-19T03:56:17.202Z,101280.75
2023-02-19T03:56:44.075Z,101282.63
2023-02-19T03:57:14.322Z,101284.31
2023-02-19T03:57:43.604Z,101290.47
2023-02-19T03:58:13.143Z,101285.03
2023-02-19T03:58:41.924Z,101280.38
2023-02-19T03:59:11.309Z,101281.97
2023-02-19T03:59:38.089Z,101295.25
2023-02-19T04:00:10.484Z,101296.88
2023-02-19T04:00:40.461Z,101295.25
2023-02-19T04:01:09.207Z,101298.84
2023-02-19T04:01:39.034Z,101293.31
2023-02-19T04:02:05.447Z,101289.66
2023-02-19T04:02:33.648Z,101283.44
2023-02-19T04:03:03.243Z,101291.34
2023-02-19T04:03:31.483Z,101286.22
2023-02-19T04:03:57.298Z,101291.34
2023-02-19T04:04:25.198Z,101298.53
2023-02-19T04:04:52.904Z,101297.47
2023-02-19T04:05:18.990Z,101295.69
2023-02-19T04:05:46.954Z,101290.34
2023-02-19T04:06:13.360Z,101291.16
2023-02-19T04:06:37.273Z,101292.03
2023-02-19T04:07:00.135Z,101290.22
2023-02-19T04:07:28.207Z,101302.53
2023-02-19T04:07:52.107Z,101290.78
2023-02-19T04:08:23.436Z,101285.41
2023-02-19T04:08:57.095Z,101280.31
2023-02-19T04:09:20.457Z,101296.78
2023-02-19T04:09:49.998Z,101294.13
2023-02-19T04:10:15.719Z,101294.00
2023-02-19T04:10:42.359Z,101296.50
2023-02-19T04:11:05.830Z,101297.47
2023-02-19T04:11:32.357Z,101307.34
2023-02-19T04:11:59.211Z,101290.75
2023-02-19T04:12:23.542Z,101298.59
2023-02-19T04:12:50.020Z,101297.72
2023-02-19T04:13:17.362Z,101297.72
2023-02-19T04:13:43.183Z,101300.22
2023-02-19T04:14:09.328Z,101300.22
2023-02-19T04:14:34.527Z,101285.91
2023-02-19T04:15:01.390Z,101298.38
2023-02-19T04:15:27.913Z,101295.97
2023-02-19T04:15:52.802Z,101299.78
2023-02-19T04:16:20.114Z,101307.50
2023-02-19T04:16:47.460Z,101297.75
2023-02-19T04:17:17.927Z,101302.28
2023-02-19T04:17:45.722Z,101289.13
2023-02-19T04:18:10.584Z,101303.97
2023-02-19T04:18:36.878Z,101306.63
2023-02-19T04:19:04.806Z,101304.25
2023-02-19T04:19:29.030Z,101307.06
2023-02-19T04:19:53.243Z,101307.78
2023-02-19T04:20:16.607Z,101312.19
2023-02-19T04:20:43.511Z,101310.22
2023-02-19T04:21:06.977Z,101314.63
2023-02-19T04:21:30.249Z,101312.91
2023-02-19T04:21:53.866Z,101320.78
2023-02-19T04:22:16.949Z,101316.34
2023-02-19T04:22:41.019Z,101308.34
2023-02-19T04:23:03.249Z,101318.94
2023-02-19T04:23:28.132Z,101309.06
2023-02-19T04:23:50.195Z,101311.69
2023-02-19T04:24:17.785Z,101323.28
2023-02-19T04:24:47.501Z,101317.03
2023-02-19T04:25:09.468Z,101317.91
2023-02-19T04:25:32.628Z,101316.44
2023-02-19T04:26:00.416Z,101324.31
2023-02-19T04:26:23.099Z,101318.06
2023-02-19T04:26:45.262Z,101315.75
2023-02-19T04:27:10.218Z,101322.69
2023-02-19T04:27:32.716Z,101321.78
2023-02-19T04:27:54.737Z,101316.47
2023-02-19T04:28:18.260Z,101320.06
2023-02-19T04:28:42.983Z,101323.66
2023-02-19T04:29:04.643Z,101316.63
2023-02-19T04:29:26.284Z,101322.69
2023-02-19T04:29:48.205Z,101327.81
2023-02-19T04:30:14.052Z,101326.03
2023-02-19T04:30:35.677Z,101319.75
2023-02-19T04:30:57.384Z,101329.50
2023-02-19T04:31:20.630Z,101329.50
2023-02-19T04:31:42.438Z,101325.97
2023-02-19T04:32:05.422Z,101331.25
2023-02-19T04:32:27.132Z,101332.91
2023-02-19T04:32:48.744Z,101333.75
2023-02-19T04:33:10.440Z,101332.91
2023-02-19T04:33:32.083Z,101327.50
2023-02-19T04:33:54.618Z,101330.94
2023-02-19T04:34:16.367Z,101336.31
2023-02-19T04:34:37.967Z,101325.59
2023-02-19T04:34:59.548Z,101335.28
2023-02-19T04:35:21.164Z,101336.22
2023-02-19T04:35:43.752Z,101334.47
2023-02-19T04:36:07.287Z,101333.47
2023-02-19T04:36:28.991Z,101348.00
2023-02-19T04:36:51.691Z,101331.25
2023-02-19T04:37:13.552Z,101326.03
2023-02-19T04:37:35.259Z,101335.81
2023-02-19T04:37:56.932Z,101334.84
2023-02-19T04:38:18.534Z,101335.88
2023-02-19T04:38:41.090Z,101329.53
2023-02-19T04:39:03.284Z,101339.28
2023-02-19T04:39:24.913Z,101329.28
2023-02-19T04:39:46.488Z,101331.75
2023-02-19T04:40:09.517Z,101339.59
2023-02-19T04:40:34.107Z,101340.59
2023-02-19T04:40:56.772Z,101336.03
2023-02-19T04:41:18.746Z,101336.06
2023-02-19T04:41:40.332Z,101337.09
2023-02-19T04:42:02.919Z,101344.25
2023-02-19T04:42:24.798Z,101321.28
2023-02-19T04:42:46.442Z,101344.78
2023-02-19T04:43:08.312Z,101345.69
2023-02-19T04:43:29.947Z,101342.31
2023-02-19T04:43:52.518Z,101346.72
2023-02-19T04:44:14.132Z,101351.91
2023-02-19T04:44:35.855Z,101339.38
2023-02-19T04:44:57.715Z,101338.50
2023-02-19T04:45:19.389Z,101348.44
2023-02-19T04:45:42.005Z,101344.88
2023-02-19T04:46:03.737Z,101351.84
2023-02-19T04:46:27.456Z,101347.50
2023-02-19T04:46:49.010Z,101358.31
2023-02-19T04:47:11.574Z,101348.75
2023-02-19T04:47:33.292Z,101348.00
2023-02-19T04:47:54.914Z,101342.53
2023-02-19T04:48:16.559Z,101343.47
2023-02-19T04:48:38.237Z,101345.13
2023-02-19T04:49:00.850Z,101340.56
2023-02-19T04:49:22.607Z,101339.63
2023-02-19T04:49:45.063Z,101349.38
2023-02-19T04:50:07.841Z,101347.44
2023-02-19T04:50:30.553Z,101343.84
2023-02-19T04:50:52.587Z,101345.69
2023-02-19T04:51:14.216Z,101349.16
2023-02-19T04:51:35.866Z,101345.50
2023-02-19T04:51:58.399Z,101349.84
2023-02-19T04:52:20.048Z,101340.97
2023-02-19T04:52:41.594Z,101345.59
2023-02-19T04:53:03.216Z,101344.72
2023-02-19T04:53:25.942Z,101348.50
2023-02-19T04:53:47.567Z,101349.28
2023-02-19T04:54:09.316Z,101345.69
2023-02-19T04:54:31.277Z,101342.97
2023-02-19T04:54:53.516Z,101336.72